Time,TemperatureF,DewpointF,PressureIn,WindDirection,WindDirectionDegrees,WindSpeedMPH,WindSpeedGustMPH,Humidity,HourlyPrecipIn,Conditions,Clouds,dailyrainin,SoftwareType,DateUTC
2013-09-25 00:00:00,61.2,57.0,29.82,NNW,340,1.0,4.0,86,0.00,,---,0.00,VWS V14.01,2013-09-25 05:00:00,
2013-09-25 00:02:00,60.7,56.8,29.82,NNW,329,0.0,0.0,87,0.00,,---,0.00,VWS V14.01,2013-09-25 05:02:00,
2013-09-25 00:07:00,60.5,56.9,29.82,NNW,329,0.0,1.0,88,0.00,,---,0.00,VWS V14.01,2013-09-25 05:07:00,
2013-09-25 00:12:00,60.5,56.9,29.82,NNW,330,1.0,1.0,88,0.00,,---,0.00,VWS V14.01,2013-09-25 05:12:00,
2013-09-25 00:17:00,60.4,56.8,29.82,NNW,329,0.0,2.0,88,0.00,,---,0.00,VWS V14.01,2013-09-25 05:17:00,
2013-09-25 00:22:00,60.2,56.6,29.82,NNW,329,0.0,2.0,88,0.00,,---,0.00,VWS V14.01,2013-09-25 05:22:00,
2013-09-25 00:27:00,59.9,56.3,29.82,NNW,329,0.0,2.0,88,0.00,,---,0.00,VWS V14.01,2013-09-25 05:27:00,
2013-09-25 00:30:00,61.2,57.3,29.82,NNW,329,0.0,3.0,87,0.00,,---,0.00,VWS V14.01,2013-09-25 05:30:00,
2013-09-25 00:32:00,59.9,56.3,29.82,NNW,329,0.0,0.0,88,0.00,,---,0.00,VWS V14.01,2013-09-25 05:32:00,
2013-09-25 00:37:00,59.6,56.0,29.82,NNW,329,0.0,1.0,88,0.00,,---,0.00,VWS V14.01,2013-09-25 05:37:00,
2013-09-25 00:42:00,59.6,56.0,29.82,NNW,330,0.0,1.0,88,0.00,,---,0.00,VWS V14.01,2013-09-25 05:42:00,
2013-09-25 00:47:00,59.8,56.2,29.82,NNW,329,0.0,2.0,88,0.00,,---,0.00,VWS V14.01,2013-09-25 05:47:00,
2013-09-25 00:52:00,59.9,56.3,29.82,NNW,330,0.0,3.0,88,0.00,,---,0.00,VWS V14.01,2013-09-25 05:52:00,
2013-09-25 00:57:00,59.8,56.2,29.82,NNW,330,0.0,3.0,88,0.00,,---,0.00,VWS V14.01,2013-09-25 05:57:00,
2013-09-25 01:00:00,60.7,56.8,29.82,NNW,330,0.0,3.0,87,0.00,,---,0.00,VWS V14.01,2013-09-25 06:00:00,
2013-09-25 01:02:00,59.8,56.6,29.82,NNW,330,1.0,2.0,89,0.00,,---,0.00,VWS V14.01,2013-09-25 06:02:00,
2013-09-25 01:07:00,59.8,56.6,29.82,NNW,330,0.0,2.0,89,0.00,,---,0.00,VWS V14.01,2013-09-25 06:07:00,
2013-09-25 01:12:00,59.6,56.4,29.82,NNW,330,0.0,2.0,89,0.00,,---,0.00,VWS V14.01,2013-09-25 06:12:00,
2013-09-25 01:17:00,59.6,56.4,29.82,NNW,331,1.0,3.0,89,0.00,,---,0.00,VWS V14.01,2013-09-25 06:17:00,
2013-09-25 01:22:00,59.6,56.4,29.82,NNW,331,0.0,3.0,89,0.00,,---,0.00,VWS V14.01,2013-09-25 06:22:00,
2013-09-25 01:27:00,59.5,56.3,29.82,NNW,331,0.0,3.0,89,0.00,,---,0.00,VWS V14.01,2013-09-25 06:27:00,
2013-09-25 01:30:00,59.9,56.3,29.82,NNW,329,0.0,2.0,88,0.00,,---,0.00,VWS V14.01,2013-09-25 06:30:00,
2013-09-25 01:32:00,59.5,56.3,29.82,NNW,331,2.0,3.0,89,0.00,,---,0.00,VWS V14.01,2013-09-25 06:32:00,
2013-09-25 01:37:00,59.5,56.3,29.82,NNW,331,1.0,3.0,89,0.00,,---,0.00,VWS V14.01,2013-09-25 06:37:00,
2013-09-25 01:42:00,59.5,56.3,29.82,NNW,331,0.0,3.0,89,0.00,,---,0.00,VWS V14.01,2013-09-25 06:42:00,
2013-09-25 01:47:00,59.3,56.4,29.82,NNW,331,0.0,3.0,90,0.00,,---,0.00,VWS V14.01,2013-09-25 06:47:00,
2013-09-25 01:52:00,59.3,56.4,29.82,NNW,331,0.0,3.0,90,0.00,,---,0.00,VWS V14.01,2013-09-25 06:52:00,
2013-09-25 01:57:00,59.2,56.3,29.82,NNW,331,0.0,3.0,90,0.00,,---,0.00,VWS V14.01,2013-09-25 06:57:00,
2013-09-25 02:00:00,59.8,56.6,29.82,NNW,330,0.0,3.0,89,0.00,,---,0.00,VWS V14.01,2013-09-25 07:00:00,
2013-09-25 02:02:00,59.2,56.3,29.82,NNW,331,0.0,0.0,90,0.00,,---,0.00,VWS V14.01,2013-09-25 07:02:00,
2013-09-25 02:07:00,59.0,56.1,29.82,NNW,331,0.0,1.0,90,0.00,,---,0.00,VWS V14.01,2013-09-25 07:07:00,
2013-09-25 02:12:00,58.9,56.0,29.82,NNW,331,0.0,2.0,90,0.00,,---,0.00,VWS V14.01,2013-09-25 07:12:00,
2013-09-25 02:17:00,58.7,55.8,29.82,NNW,331,0.0,2.0,90,0.00,,---,0.00,VWS V14.01,2013-09-25 07:17:00,
2013-09-25 02:22:00,58.4,55.5,29.82,NNW,331,0.0,2.0,90,0.00,,---,0.00,VWS V14.01,2013-09-25 07:22:00,
2013-09-25 02:27:00,58.1,55.2,29.82,NNW,331,0.0,2.0,90,0.00,,---,0.00,VWS V14.01,2013-09-25 07:27:00,
2013-09-25 02:30:00,59.5,56.3,29.82,NNW,331,1.0,3.0,89,0.00,,---,0.00,VWS V14.01,2013-09-25 07:30:00,
2013-09-25 02:32:00,58.0,55.1,29.82,NNW,331,0.0,0.0,90,0.00,,---,0.00,VWS V14.01,2013-09-25 07:32:00,
2013-09-25 02:37:00,57.6,54.7,29.82,NNW,331,0.0,0.0,90,0.00,,---,0.00,VWS V14.01,2013-09-25 07:37:00,
2013-09-25 02:42:00,57.5,54.6,29.82,NNW,331,0.0,1.0,90,0.00,,---,0.00,VWS V14.01,2013-09-25 07:42:00,
2013-09-25 02:47:00,57.5,54.9,29.81,NNW,332,1.0,3.0,91,0.00,,---,0.00,VWS V14.01,2013-09-25 07:47:00,
2013-09-25 02:52:00,57.8,55.2,29.81,NNW,334,0.0,3.0,91,0.00,,---,0.00,VWS V14.01,2013-09-25 07:52:00,
2013-09-25 02:57:00,58.1,55.5,29.81,NNW,334,0.0,3.0,91,0.00,,---,0.00,VWS V14.01,2013-09-25 07:57:00,
2013-09-25 03:00:00,59.2,56.3,29.82,NNW,331,0.0,3.0,90,0.00,,---,0.00,VWS V14.01,2013-09-25 08:00:00,
2013-09-25 03:02:00,58.4,55.8,29.81,NNW,334,2.0,3.0,91,0.00,,---,0.00,VWS V14.01,2013-09-25 08:02:00,
2013-09-25 03:07:00,58.4,55.8,29.81,NNW,334,0.0,3.0,91,0.00,,---,0.00,VWS V14.01,2013-09-25 08:07:00,
2013-09-25 03:12:00,58.4,55.8,29.81,NNW,334,0.0,3.0,91,0.00,,---,0.00,VWS V14.01,2013-09-25 08:12:00,
2013-09-25 03:17:00,58.4,55.8,29.81,NNW,334,1.0,3.0,91,0.00,,---,0.00,VWS V14.01,2013-09-25 08:17:00,
2013-09-25 03:22:00,58.4,55.8,29.81,NNW,334,0.0,4.0,91,0.00,,---,0.00,VWS V14.01,2013-09-25 08:22:00,
2013-09-25 03:27:00,58.3,55.7,29.81,NNW,334,1.0,4.0,91,0.00,,---,0.00,VWS V14.01,2013-09-25 08:27:00,
2013-09-25 03:30:00,58.0,55.1,29.82,NNW,331,0.0,2.0,90,0.00,,---,0.00,VWS V14.01,2013-09-25 08:30:00,
2013-09-25 03:31:00,58.1,55.5,29.81,NNW,334,2.0,2.0,91,0.00,,---,0.00,VWS V14.01,2013-09-25 08:31:00,
2013-09-25 03:37:00,58.1,55.8,29.81,NNW,336,3.0,3.0,92,0.00,,---,0.00,VWS V14.01,2013-09-25 08:37:00,
2013-09-25 03:41:00,58.0,55.7,29.81,NNW,336,1.0,4.0,92,0.00,,---,0.00,VWS V14.01,2013-09-25 08:41:00,
2013-09-25 03:46:00,57.8,55.5,29.81,NNW,336,1.0,4.0,92,0.00,,---,0.00,VWS V14.01,2013-09-25 08:46:00,
2013-09-25 03:51:00,57.8,55.5,29.81,NNW,338,1.0,4.0,92,0.00,,---,0.00,VWS V14.01,2013-09-25 08:51:00,
2013-09-25 03:56:00,57.6,55.3,29.81,NNW,338,0.0,4.0,92,0.00,,---,0.00,VWS V14.01,2013-09-25 08:56:00,
2013-09-25 04:00:00,58.3,55.7,29.81,NNW,334,1.0,3.0,91,0.00,,---,0.00,VWS V14.01,2013-09-25 09:00:00,
2013-09-25 04:01:00,57.5,55.2,29.81,NNW,338,1.0,2.0,92,0.00,,---,0.00,VWS V14.01,2013-09-25 09:01:00,
2013-09-25 04:06:00,57.3,55.0,29.81,NNW,338,1.0,3.0,92,0.00,,---,0.00,VWS V14.01,2013-09-25 09:06:00,
2013-09-25 04:11:00,57.3,55.0,29.81,NNW,338,1.0,3.0,92,0.00,,---,0.00,VWS V14.01,2013-09-25 09:11:00,
2013-09-25 04:16:00,57.3,55.0,29.81,NNW,338,2.0,3.0,92,0.00,,---,0.00,VWS V14.01,2013-09-25 09:16:00,
2013-09-25 04:21:00,57.3,55.0,29.81,NNW,339,1.0,3.0,92,0.00,,---,0.00,VWS V14.01,2013-09-25 09:21:00,
2013-09-25 04:26:00,57.3,55.0,29.81,NNW,339,0.0,3.0,92,0.00,,---,0.00,VWS V14.01,2013-09-25 09:26:00,
2013-09-25 04:30:00,58.1,55.5,29.81,NNW,334,0.0,4.0,91,0.00,,---,0.00,VWS V14.01,2013-09-25 09:30:00,
2013-09-25 04:31:00,57.3,55.0,29.81,NNW,339,0.0,0.0,92,0.00,,---,0.00,VWS V14.01,2013-09-25 09:31:00,
2013-09-25 04:36:00,57.5,55.5,29.81,NNW,339,3.0,3.0,93,0.00,,---,0.00,VWS V14.01,2013-09-25 09:36:00,
2013-09-25 04:41:00,57.6,55.6,29.81,NNW,339,0.0,3.0,93,0.00,,---,0.00,VWS V14.01,2013-09-25 09:41:00,
2013-09-25 04:46:00,57.8,55.8,29.82,NNW,339,0.0,3.0,93,0.00,,---,0.00,VWS V14.01,2013-09-25 09:46:00,
2013-09-25 04:51:00,57.8,55.8,29.82,NNW,339,0.0,3.0,93,0.00,,---,0.00,VWS V14.01,2013-09-25 09:51:00,
2013-09-25 04:56:00,57.6,55.6,29.82,NNW,339,0.0,3.0,93,0.00,,---,0.00,VWS V14.01,2013-09-25 09:56:00,
2013-09-25 05:00:00,57.5,55.2,29.81,NNW,338,1.0,4.0,92,0.00,,---,0.00,VWS V14.01,2013-09-25 10:00:00,
2013-09-25 05:01:00,57.5,55.5,29.82,NNW,339,0.0,0.0,93,0.00,,---,0.00,VWS V14.01,2013-09-25 10:01:00,
2013-09-25 05:06:00,57.3,55.3,29.82,NNW,339,0.0,0.0,93,0.00,,---,0.00,VWS V14.01,2013-09-25 10:06:00,
2013-09-25 05:11:00,57.0,55.0,29.82,NNW,339,0.0,0.0,93,0.00,,---,0.00,VWS V14.01,2013-09-25 10:11:00,
2013-09-25 05:16:00,56.7,54.7,29.82,NNW,339,0.0,0.0,93,0.00,,---,0.00,VWS V14.01,2013-09-25 10:16:00,
2013-09-25 05:21:00,56.5,54.5,29.82,NNW,339,0.0,0.0,93,0.00,,---,0.00,VWS V14.01,2013-09-25 10:21:00,
2013-09-25 05:26:00,56.3,54.3,29.82,NNW,339,0.0,0.0,93,0.00,,---,0.00,VWS V14.01,2013-09-25 10:26:00,
2013-09-25 05:30:00,57.3,55.0,29.81,NNW,339,0.0,3.0,92,0.00,,---,0.00,VWS V14.01,2013-09-25 10:30:00,
2013-09-25 05:31:00,56.2,54.2,29.82,NNW,339,0.0,0.0,93,0.00,,---,0.00,VWS V14.01,2013-09-25 10:31:00,
2013-09-25 05:36:00,56.5,54.5,29.82,NNW,339,0.0,0.0,93,0.00,,---,0.00,VWS V14.01,2013-09-25 10:36:00,
2013-09-25 05:41:00,56.7,54.7,29.82,NNW,339,0.0,0.0,93,0.00,,---,0.00,VWS V14.01,2013-09-25 10:41:00,
2013-09-25 05:46:00,56.9,55.2,29.82,NNW,339,1.0,2.0,94,0.00,,---,0.00,VWS V14.01,2013-09-25 10:46:00,
2013-09-25 05:51:00,57.0,55.3,29.82,NNW,339,0.0,2.0,94,0.00,,---,0.00,VWS V14.01,2013-09-25 10:51:00,
2013-09-25 05:56:00,56.7,54.7,29.82,NNW,339,0.0,2.0,93,0.00,,---,0.00,VWS V14.01,2013-09-25 10:56:00,
2013-09-25 06:00:00,57.5,55.5,29.82,NNW,339,0.0,3.0,93,0.00,,---,0.00,VWS V14.01,2013-09-25 11:00:00,
2013-09-25 06:01:00,56.5,54.5,29.82,NNW,339,0.0,0.0,93,0.00,,---,0.00,VWS V14.01,2013-09-25 11:01:00,
2013-09-25 06:06:00,56.2,54.2,29.82,NNW,339,0.0,1.0,93,0.00,,---,0.00,VWS V14.01,2013-09-25 11:06:00,
2013-09-25 06:11:00,56.0,54.0,29.82,NNW,339,0.0,1.0,93,0.00,,---,0.00,VWS V14.01,2013-09-25 11:11:00,
2013-09-25 06:16:00,55.9,54.2,29.83,NNW,339,1.0,1.0,94,0.00,,---,0.00,VWS V14.01,2013-09-25 11:16:00,
2013-09-25 06:21:00,55.9,54.2,29.83,NNW,339,0.0,2.0,94,0.00,,---,0.00,VWS V14.01,2013-09-25 11:21:00,
2013-09-25 06:26:00,55.9,54.2,29.83,NNW,339,0.0,2.0,94,0.00,,---,0.00,VWS V14.01,2013-09-25 11:26:00,
2013-09-25 06:30:00,56.2,54.2,29.82,NNW,339,0.0,0.0,93,0.00,,---,0.00,VWS V14.01,2013-09-25 11:30:00,
2013-09-25 06:31:00,55.9,54.2,29.83,NNW,339,0.0,0.0,94,0.00,,---,0.00,VWS V14.01,2013-09-25 11:31:00,
2013-09-25 06:36:00,55.9,54.2,29.83,NNW,339,0.0,1.0,94,0.00,,---,0.00,VWS V14.01,2013-09-25 11:36:00,
2013-09-25 06:41:00,55.9,54.2,29.83,NNW,339,0.0,1.0,94,0.00,,---,0.00,VWS V14.01,2013-09-25 11:41:00,
2013-09-25 06:46:00,55.9,54.2,29.84,NNW,339,0.0,1.0,94,0.00,,---,0.00,VWS V14.01,2013-09-25 11:46:00,
2013-09-25 06:51:00,55.9,54.2,29.84,NNW,339,0.0,1.0,94,0.00,,---,0.00,VWS V14.01,2013-09-25 11:51:00,
2013-09-25 06:56:00,55.9,54.2,29.84,NNW,339,0.0,1.0,94,0.00,,---,0.00,VWS V14.01,2013-09-25 11:56:00,
2013-09-25 07:00:00,56.5,54.5,29.82,NNW,339,0.0,2.0,93,0.00,,---,0.00,VWS V14.01,2013-09-25 12:00:00,
2013-09-25 07:01:00,55.9,54.2,29.84,NNW,339,0.0,0.0,94,0.00,,---,0.00,VWS V14.01,2013-09-25 12:01:00,
2013-09-25 07:06:00,55.9,54.2,29.84,NNW,339,0.0,0.0,94,0.00,,---,0.00,VWS V14.01,2013-09-25 12:06:00,
2013-09-25 07:11:00,56.2,54.8,29.84,NNW,339,0.0,2.0,95,0.00,,---,0.00,VWS V14.01,2013-09-25 12:11:00,
2013-09-25 07:16:00,56.5,55.1,29.85,NNW,339,0.0,2.0,95,0.00,,---,0.00,VWS V14.01,2013-09-25 12:16:00,
2013-09-25 07:21:00,56.7,55.3,29.85,NNW,339,0.0,2.0,95,0.00,,---,0.00,VWS V14.01,2013-09-25 12:21:00,
2013-09-25 07:26:00,57.0,55.6,29.85,NNW,339,0.0,2.0,95,0.00,,---,0.00,VWS V14.01,2013-09-25 12:26:00,
2013-09-25 07:27:00,57.2,55.8,29.85,NNW,339,0.0,2.0,95,0.00,,---,0.00,VWS V14.01,2013-09-25 12:27:00,
2013-09-25 07:30:00,55.9,54.2,29.83,NNW,339,0.0,2.0,94,0.00,,---,0.00,VWS V14.01,2013-09-25 12:30:00,
2013-09-25 07:32:00,57.3,55.9,29.85,NNW,339,0.0,1.0,95,0.00,,---,0.00,VWS V14.01,2013-09-25 12:32:00,
2013-09-25 07:37:00,57.5,56.1,29.85,NNW,339,0.0,1.0,95,0.00,,---,0.00,VWS V14.01,2013-09-25 12:37:00,
2013-09-25 07:42:00,57.5,56.1,29.85,NNW,339,0.0,2.0,95,0.00,,---,0.00,VWS V14.01,2013-09-25 12:42:00,
2013-09-25 07:47:00,57.5,56.1,29.85,NNW,339,0.0,2.0,95,0.00,,---,0.00,VWS V14.01,2013-09-25 12:47:00,
2013-09-25 07:52:00,57.5,56.1,29.85,NNW,339,0.0,2.0,95,0.00,,---,0.00,VWS V14.01,2013-09-25 12:52:00,
2013-09-25 07:57:00,57.5,56.1,29.85,NNW,339,0.0,2.0,95,0.00,,---,0.00,VWS V14.01,2013-09-25 12:57:00,
2013-09-25 08:00:00,55.9,54.2,29.84,NNW,339,0.0,1.0,94,0.00,,---,0.00,VWS V14.01,2013-09-25 13:00:00,
2013-09-25 08:02:00,57.6,56.2,29.85,NNW,339,0.0,1.0,95,0.00,,---,0.00,VWS V14.01,2013-09-25 13:02:00,
2013-09-25 08:07:00,57.6,56.2,29.85,NNW,339,0.0,2.0,95,0.00,,---,0.00,VWS V14.01,2013-09-25 13:07:00,
2013-09-25 08:12:00,57.8,56.4,29.85,NNW,339,0.0,2.0,95,0.00,,---,0.00,VWS V14.01,2013-09-25 13:12:00,
2013-09-25 08:17:00,58.0,56.6,29.86,NNW,339,0.0,2.0,95,0.00,,---,0.00,VWS V14.01,2013-09-25 13:17:00,
2013-09-25 08:21:00,58.0,56.6,29.86,NNW,339,0.0,3.0,95,0.00,,---,0.00,VWS V14.01,2013-09-25 13:21:00,
2013-09-25 08:26:00,58.0,56.6,29.86,NNW,339,0.0,3.0,95,0.00,,---,0.00,VWS V14.01,2013-09-25 13:26:00,
2013-09-25 08:30:00,57.3,55.9,29.85,NNW,339,1.0,2.0,95,0.00,,---,0.00,VWS V14.01,2013-09-25 13:30:00,
2013-09-25 08:31:00,58.1,57.0,29.86,NNW,339,1.0,1.0,96,0.00,,---,0.00,VWS V14.01,2013-09-25 13:31:00,
2013-09-25 08:36:00,58.1,57.0,29.86,NNW,339,1.0,2.0,96,0.00,,---,0.00,VWS V14.01,2013-09-25 13:36:00,
2013-09-25 08:41:00,58.1,57.0,29.86,NNW,339,0.0,2.0,96,0.00,,---,0.00,VWS V14.01,2013-09-25 13:41:00,
2013-09-25 08:46:00,58.3,57.2,29.86,NNW,339,1.0,2.0,96,0.00,,---,0.00,VWS V14.01,2013-09-25 13:46:00,
2013-09-25 08:51:00,58.4,57.3,29.86,NNW,339,0.0,2.0,96,0.00,,---,0.00,VWS V14.01,2013-09-25 13:51:00,
2013-09-25 08:57:00,58.6,57.5,29.86,NNW,339,0.0,2.0,96,0.00,,---,0.00,VWS V14.01,2013-09-25 13:57:00,
2013-09-25 09:00:00,57.6,56.2,29.85,NNW,339,0.0,2.0,95,0.00,,---,0.00,VWS V14.01,2013-09-25 14:00:00,
2013-09-25 09:02:00,58.9,57.8,29.86,NNW,339,1.0,1.0,96,0.00,,---,0.00,VWS V14.01,2013-09-25 14:02:00,
2013-09-25 09:06:00,59.0,57.9,29.86,NNW,339,0.0,3.0,96,0.01,,---,0.01,VWS V14.01,2013-09-25 14:06:00,
2013-09-25 09:11:00,59.2,58.1,29.86,NNW,339,0.0,3.0,96,0.01,,---,0.01,VWS V14.01,2013-09-25 14:11:00,
2013-09-25 09:17:00,59.3,58.2,29.86,NNW,339,0.0,3.0,96,0.01,,---,0.01,VWS V14.01,2013-09-25 14:17:00,
2013-09-25 09:21:00,59.8,58.7,29.86,NNW,339,0.0,3.0,96,0.01,,---,0.01,VWS V14.01,2013-09-25 14:21:00,
2013-09-25 09:27:00,59.9,58.8,29.86,NNW,339,0.0,3.0,96,0.01,,---,0.01,VWS V14.01,2013-09-25 14:27:00,
2013-09-25 09:30:00,58.0,56.9,29.86,NNW,339,0.0,3.0,96,0.00,,---,0.00,VWS V14.01,2013-09-25 14:30:00,
2013-09-25 09:32:00,60.2,59.1,29.86,NNW,341,0.0,0.0,96,0.01,,---,0.01,VWS V14.01,2013-09-25 14:32:00,
2013-09-25 09:37:00,60.5,59.4,29.86,NNW,341,1.0,2.0,96,0.01,,---,0.01,VWS V14.01,2013-09-25 14:37:00,
2013-09-25 09:41:00,60.5,59.4,29.86,NNW,341,0.0,2.0,96,0.01,,---,0.01,VWS V14.01,2013-09-25 14:41:00,
2013-09-25 09:46:00,60.5,59.4,29.87,NNW,341,0.0,2.0,96,0.01,,---,0.01,VWS V14.01,2013-09-25 14:46:00,
2013-09-25 09:51:00,60.5,59.4,29.87,NNW,341,0.0,2.0,96,0.01,,---,0.01,VWS V14.01,2013-09-25 14:51:00,
2013-09-25 09:56:00,60.7,59.6,29.87,NNW,341,0.0,2.0,96,0.01,,---,0.01,VWS V14.01,2013-09-25 14:56:00,
2013-09-25 10:00:00,58.9,57.8,29.86,NNW,339,0.0,2.0,96,0.00,,---,0.00,VWS V14.01,2013-09-25 15:00:00,
2013-09-25 10:01:00,60.9,59.8,29.87,NNW,341,2.0,2.0,96,0.01,,---,0.01,VWS V14.01,2013-09-25 15:01:00,
2013-09-25 10:06:00,61.0,59.9,29.87,NNE,29,2.0,2.0,96,0.01,,---,0.01,VWS V14.01,2013-09-25 15:06:00,
2013-09-25 10:11:00,61.2,60.3,29.87,NNE,33,1.0,3.0,97,0.01,,---,0.01,VWS V14.01,2013-09-25 15:11:00,
2013-09-25 10:16:00,61.3,60.4,29.87,NE,34,0.0,3.0,97,0.01,,---,0.01,VWS V14.01,2013-09-25 15:16:00,
2013-09-25 10:21:00,61.5,60.6,29.87,NE,34,0.0,3.0,97,0.01,,---,0.01,VWS V14.01,2013-09-25 15:21:00,
2013-09-25 10:26:00,61.8,60.9,29.87,NE,34,0.0,3.0,97,0.01,,---,0.01,VWS V14.01,2013-09-25 15:26:00,
2013-09-25 10:30:00,60.2,59.1,29.86,NNW,341,0.0,3.0,96,0.01,,---,0.01,VWS V14.01,2013-09-25 15:30:00,
2013-09-25 10:31:00,62.4,61.5,29.87,NNE,16,1.0,3.0,97,0.00,,---,0.01,VWS V14.01,2013-09-25 15:31:00,
2013-09-25 10:36:00,62.6,61.7,29.87,NNE,28,0.0,3.0,97,0.00,,---,0.01,VWS V14.01,2013-09-25 15:36:00,
2013-09-25 10:41:00,62.7,61.8,29.87,East,101,0.0,3.0,97,0.00,,---,0.01,VWS V14.01,2013-09-25 15:41:00,
2013-09-25 10:46:00,63.1,61.9,29.87,East,101,0.0,3.0,96,0.00,,---,0.01,VWS V14.01,2013-09-25 15:46:00,
2013-09-25 10:51:00,63.2,62.3,29.87,NE,50,1.0,3.0,97,0.00,,---,0.01,VWS V14.01,2013-09-25 15:51:00,
2013-09-25 10:56:00,63.9,63.0,29.87,NE,50,0.0,3.0,97,0.00,,---,0.01,VWS V14.01,2013-09-25 15:56:00,
2013-09-25 11:00:00,60.9,59.8,29.87,NNW,341,1.0,2.0,96,0.01,,---,0.01,VWS V14.01,2013-09-25 16:00:00,
2013-09-25 11:01:00,64.7,63.5,29.87,WSW,254,2.0,2.0,96,0.00,,---,0.01,VWS V14.01,2013-09-25 16:01:00,
2013-09-25 11:06:00,64.5,63.3,29.87,WSW,254,0.0,3.0,96,0.00,,---,0.01,VWS V14.01,2013-09-25 16:06:00,
2013-09-25 11:11:00,64.8,63.9,29.87,SSW,205,0.0,3.0,97,0.00,,---,0.01,VWS V14.01,2013-09-25 16:11:00,
2013-09-25 11:16:00,65.6,64.4,29.87,South,190,0.0,3.0,96,0.00,,---,0.01,VWS V14.01,2013-09-25 16:16:00,
2013-09-25 11:21:00,66.4,65.2,29.87,SSE,157,2.0,3.0,96,0.00,,---,0.01,VWS V14.01,2013-09-25 16:21:00,
2013-09-25 11:26:00,66.8,65.6,29.87,SSE,155,0.0,3.0,96,0.00,,---,0.01,VWS V14.01,2013-09-25 16:26:00,
2013-09-25 11:30:00,62.4,61.5,29.87,NE,34,2.0,3.0,97,0.01,,---,0.01,VWS V14.01,2013-09-25 16:30:00,
2013-09-25 11:31:00,67.4,66.2,29.87,SSW,207,0.0,2.0,96,0.00,,---,0.01,VWS V14.01,2013-09-25 16:31:00,
2013-09-25 11:36:00,67.8,66.3,29.87,SSW,205,0.0,2.0,95,0.00,,---,0.01,VWS V14.01,2013-09-25 16:36:00,
2013-09-25 11:41:00,68.4,66.9,29.87,SSW,202,1.0,3.0,95,0.00,,---,0.01,VWS V14.01,2013-09-25 16:41:00,
2013-09-25 11:46:00,68.4,66.6,29.87,WSW,244,1.0,3.0,94,0.00,,---,0.01,VWS V14.01,2013-09-25 16:46:00,
2013-09-25 11:51:00,68.4,66.6,29.87,WSW,237,0.0,3.0,94,0.00,,---,0.01,VWS V14.01,2013-09-25 16:51:00,
2013-09-25 11:56:00,69.1,67.3,29.87,WSW,237,0.0,3.0,94,0.00,,---,0.01,VWS V14.01,2013-09-25 16:56:00,
2013-09-25 12:00:00,64.5,63.6,29.87,WSW,254,1.0,4.0,97,0.00,,---,0.01,VWS V14.01,2013-09-25 17:00:00,
2013-09-25 12:01:00,68.6,66.5,29.87,NNW,334,1.0,2.0,93,0.00,,---,0.01,VWS V14.01,2013-09-25 17:01:00,
2013-09-25 12:06:00,68.9,66.8,29.87,NNW,334,0.0,2.0,93,0.00,,---,0.01,VWS V14.01,2013-09-25 17:06:00,
2013-09-25 12:11:00,69.9,67.8,29.87,NNW,334,0.0,2.0,93,0.00,,---,0.01,VWS V14.01,2013-09-25 17:11:00,
2013-09-25 12:16:00,70.1,67.7,29.86,NNW,336,3.0,3.0,92,0.00,,---,0.01,VWS V14.01,2013-09-25 17:16:00,
2013-09-25 12:21:00,69.8,67.4,29.86,North,5,2.0,4.0,92,0.00,,---,0.01,VWS V14.01,2013-09-25 17:21:00,
2013-09-25 12:26:00,70.1,67.4,29.86,SSE,160,0.0,4.0,91,0.00,,---,0.01,VWS V14.01,2013-09-25 17:26:00,
2013-09-25 12:30:00,67.4,66.2,29.87,SSW,207,0.0,3.0,96,0.00,,---,0.01,VWS V14.01,2013-09-25 17:30:00,
2013-09-25 12:31:00,70.8,68.1,29.85,SE,146,1.0,2.0,91,0.00,,---,0.01,VWS V14.01,2013-09-25 17:31:00,
2013-09-25 12:36:00,70.8,67.7,29.85,East,92,0.0,3.0,90,0.00,,---,0.01,VWS V14.01,2013-09-25 17:36:00,
2013-09-25 12:41:00,70.8,67.7,29.85,NNE,29,0.0,5.0,90,0.00,,---,0.01,VWS V14.01,2013-09-25 17:41:00,
2013-09-25 12:46:00,71.1,67.7,29.85,ENE,78,3.0,5.0,89,0.00,,---,0.01,VWS V14.01,2013-09-25 17:46:00,
2013-09-25 12:51:00,71.3,67.6,29.85,ESE,106,2.0,6.0,88,0.00,,---,0.01,VWS V14.01,2013-09-25 17:51:00,
2013-09-25 12:56:00,71.5,67.4,29.85,East,87,5.0,6.0,87,0.00,,---,0.01,VWS V14.01,2013-09-25 17:56:00,
2013-09-25 13:00:00,68.8,66.7,29.87,NNW,334,1.0,4.0,93,0.00,,---,0.01,VWS V14.01,2013-09-25 18:00:00,
2013-09-25 13:01:00,71.8,67.7,29.84,SE,126,2.0,3.0,87,0.00,,---,0.01,VWS V14.01,2013-09-25 18:01:00,
2013-09-25 13:06:00,72.0,67.6,29.84,East,88,1.0,6.0,86,0.00,,---,0.01,VWS V14.01,2013-09-25 18:06:00,
2013-09-25 13:11:00,72.1,67.7,29.84,ENE,70,0.0,6.0,86,0.00,,---,0.01,VWS V14.01,2013-09-25 18:11:00,
2013-09-25 13:16:00,72.3,67.9,29.84,ENE,71,1.0,6.0,86,0.00,,---,0.01,VWS V14.01,2013-09-25 18:16:00,
2013-09-25 13:21:00,72.7,67.9,29.84,ENE,77,0.0,6.0,85,0.00,,---,0.01,VWS V14.01,2013-09-25 18:21:00,
2013-09-25 13:26:00,73.0,67.9,29.84,SSE,152,3.0,6.0,84,0.00,,---,0.01,VWS V14.01,2013-09-25 18:26:00,
2013-09-25 13:30:00,70.8,68.1,29.85,SE,146,0.0,4.0,91,0.00,,---,0.01,VWS V14.01,2013-09-25 18:30:00,
2013-09-25 13:31:00,73.0,67.5,29.84,ESE,119,2.0,3.0,83,0.00,,---,0.01,VWS V14.01,2013-09-25 18:31:00,
2013-09-25 13:36:00,73.0,67.2,29.84,East,85,0.0,6.0,82,0.00,,---,0.01,VWS V14.01,2013-09-25 18:36:00,
2013-09-25 13:41:00,73.3,67.5,29.84,ESE,105,4.0,6.0,82,0.00,,---,0.01,VWS V14.01,2013-09-25 18:41:00,
2013-09-25 13:46:00,73.5,67.7,29.83,West,259,1.0,6.0,82,0.00,,---,0.01,VWS V14.01,2013-09-25 18:46:00,
2013-09-25 13:51:00,73.9,67.7,29.83,SSE,163,3.0,6.0,81,0.00,,---,0.01,VWS V14.01,2013-09-25 18:51:00,
2013-09-25 13:56:00,74.0,67.4,29.83,ESE,104,0.0,6.0,80,0.00,,---,0.01,VWS V14.01,2013-09-25 18:56:00,
2013-09-25 14:00:00,71.6,67.5,29.84,East,101,0.0,6.0,87,0.00,,---,0.01,VWS V14.01,2013-09-25 19:00:00,
2013-09-25 14:01:00,74.2,67.3,29.82,SE,129,0.0,1.0,79,0.00,,---,0.01,VWS V14.01,2013-09-25 19:01:00,
2013-09-25 14:06:00,74.6,67.7,29.82,SSE,150,0.0,3.0,79,0.00,,---,0.01,VWS V14.01,2013-09-25 19:06:00,
2013-09-25 14:11:00,74.9,67.9,29.82,East,87,2.0,5.0,79,0.00,,---,0.01,VWS V14.01,2013-09-25 19:11:00,
2013-09-25 14:16:00,74.9,67.6,29.81,SSE,158,1.0,5.0,78,0.00,,---,0.01,VWS V14.01,2013-09-25 19:16:00,
2013-09-25 14:21:00,75.1,67.8,29.81,SW,236,2.0,5.0,78,0.00,,---,0.01,VWS V14.01,2013-09-25 19:21:00,
2013-09-25 14:26:00,75.3,67.2,29.81,South,169,0.0,5.0,76,0.00,,---,0.01,VWS V14.01,2013-09-25 19:26:00,
2013-09-25 14:30:00,73.0,67.5,29.84,ESE,121,3.0,6.0,83,0.00,,---,0.01,VWS V14.01,2013-09-25 19:30:00,
2013-09-25 14:31:00,75.4,67.3,29.81,South,171,0.0,2.0,76,0.00,,---,0.01,VWS V14.01,2013-09-25 19:31:00,
2013-09-25 14:36:00,75.6,67.5,29.81,WSW,240,4.0,4.0,76,0.00,,---,0.01,VWS V14.01,2013-09-25 19:36:00,
2013-09-25 14:41:00,75.8,67.3,29.81,SSE,153,0.0,5.0,75,0.00,,---,0.01,VWS V14.01,2013-09-25 19:41:00,
2013-09-25 14:46:00,75.8,66.9,29.81,WSW,254,2.0,5.0,74,0.00,,---,0.01,VWS V14.01,2013-09-25 19:46:00,
2013-09-25 14:51:00,76.0,67.1,29.81,SW,231,0.0,5.0,74,0.00,,---,0.01,VWS V14.01,2013-09-25 19:51:00,
2013-09-25 14:56:00,76.3,67.4,29.81,SE,125,0.0,5.0,74,0.00,,---,0.01,VWS V14.01,2013-09-25 19:56:00,
2013-09-25 15:00:00,74.2,67.3,29.82,SE,129,1.0,7.0,79,0.00,,---,0.01,VWS V14.01,2013-09-25 20:00:00,
2013-09-25 15:01:00,76.3,67.0,29.81,South,185,2.0,3.0,73,0.00,,---,0.01,VWS V14.01,2013-09-25 20:01:00,
2013-09-25 15:06:00,76.3,66.6,29.81,SE,138,0.0,4.0,72,0.00,,---,0.01,VWS V14.01,2013-09-25 20:06:00,
2013-09-25 15:11:00,76.5,66.8,29.81,SE,137,1.0,4.0,72,0.00,,---,0.01,VWS V14.01,2013-09-25 20:11:00,
2013-09-25 15:16:00,76.5,66.8,29.80,South,169,1.0,4.0,72,0.00,,---,0.01,VWS V14.01,2013-09-25 20:16:00,
2013-09-25 15:21:00,76.8,67.1,29.80,SW,223,3.0,4.0,72,0.00,,---,0.01,VWS V14.01,2013-09-25 20:21:00,
2013-09-25 15:26:00,76.8,66.3,29.80,ESE,109,1.0,5.0,70,0.00,,---,0.01,VWS V14.01,2013-09-25 20:26:00,
2013-09-25 15:30:00,75.4,67.3,29.81,South,171,2.0,5.0,76,0.00,,---,0.01,VWS V14.01,2013-09-25 20:30:00,
2013-09-25 15:31:00,76.7,66.6,29.80,SSE,155,3.0,3.0,71,0.00,,---,0.01,VWS V14.01,2013-09-25 20:31:00,
2013-09-25 15:36:00,76.8,66.3,29.80,SSE,161,0.0,4.0,70,0.00,,---,0.01,VWS V14.01,2013-09-25 20:36:00,
2013-09-25 15:41:00,77.0,66.5,29.80,SSE,150,0.0,4.0,70,0.00,,---,0.01,VWS V14.01,2013-09-25 20:41:00,
2013-09-25 15:46:00,77.2,66.2,29.80,SSE,157,0.0,5.0,69,0.00,,---,0.01,VWS V14.01,2013-09-25 20:46:00,
2013-09-25 15:51:00,77.0,66.1,29.80,SE,130,1.0,5.0,69,0.00,,---,0.01,VWS V14.01,2013-09-25 20:51:00,
2013-09-25 15:56:00,77.0,66.1,29.80,SE,138,0.0,5.0,69,0.00,,---,0.01,VWS V14.01,2013-09-25 20:56:00,
2013-09-25 16:00:00,76.3,67.0,29.81,South,191,2.0,5.0,73,0.00,,---,0.01,VWS V14.01,2013-09-25 21:00:00,
2013-09-25 16:01:00,77.2,65.8,29.80,South,183,1.0,3.0,68,0.00,,---,0.01,VWS V14.01,2013-09-25 21:01:00,
2013-09-25 16:06:00,77.0,65.6,29.80,South,185,4.0,4.0,68,0.00,,---,0.01,VWS V14.01,2013-09-25 21:06:00,
2013-09-25 16:11:00,77.0,65.6,29.80,SSE,167,3.0,5.0,68,0.00,,---,0.01,VWS V14.01,2013-09-25 21:11:00,
2013-09-25 16:16:00,77.0,65.6,29.80,ESE,104,1.0,5.0,68,0.00,,---,0.01,VWS V14.01,2013-09-25 21:16:00,
2013-09-25 16:21:00,76.8,65.4,29.80,West,269,0.0,5.0,68,0.00,,---,0.01,VWS V14.01,2013-09-25 21:21:00,
2013-09-25 16:26:00,76.8,65.4,29.80,SSE,148,2.0,5.0,68,0.00,,---,0.01,VWS V14.01,2013-09-25 21:26:00,
2013-09-25 16:30:00,76.7,66.2,29.80,SSE,158,1.0,5.0,70,0.00,,---,0.01,VWS V14.01,2013-09-25 21:30:00,
2013-09-25 16:31:00,76.7,65.3,29.80,SSE,153,1.0,2.0,68,0.00,,---,0.01,VWS V14.01,2013-09-25 21:31:00,
2013-09-25 16:36:00,76.5,65.2,29.80,SE,130,1.0,4.0,68,0.00,,---,0.01,VWS V14.01,2013-09-25 21:36:00,
2013-09-25 16:41:00,76.3,65.0,29.80,SE,145,1.0,5.0,68,0.00,,---,0.01,VWS V14.01,2013-09-25 21:41:00,
2013-09-25 16:46:00,76.3,65.0,29.79,ESE,115,5.0,6.0,68,0.00,,---,0.01,VWS V14.01,2013-09-25 21:46:00,
2013-09-25 16:51:00,76.1,64.8,29.79,SE,144,0.0,6.0,68,0.00,,---,0.01,VWS V14.01,2013-09-25 21:51:00,
2013-09-25 16:56:00,76.1,64.8,29.79,SE,126,1.0,6.0,68,0.00,,---,0.01,VWS V14.01,2013-09-25 21:56:00,
2013-09-25 17:00:00,77.2,66.2,29.80,South,183,2.0,5.0,69,0.00,,---,0.01,VWS V14.01,2013-09-25 22:00:00,
2013-09-25 17:01:00,76.1,64.8,29.79,ENE,77,1.0,2.0,68,0.00,,---,0.01,VWS V14.01,2013-09-25 22:01:00,
2013-09-25 17:06:00,76.0,64.7,29.79,SSE,153,1.0,5.0,68,0.00,,---,0.01,VWS V14.01,2013-09-25 22:06:00,
2013-09-25 17:11:00,75.8,64.5,29.79,ESE,106,2.0,5.0,68,0.00,,---,0.01,VWS V14.01,2013-09-25 22:11:00,
2013-09-25 17:16:00,75.8,64.5,29.79,ESE,115,1.0,6.0,68,0.00,,---,0.01,VWS V14.01,2013-09-25 22:16:00,
2013-09-25 17:21:00,75.6,64.3,29.79,SSW,196,4.0,8.0,68,0.00,,---,0.01,VWS V14.01,2013-09-25 22:21:00,
2013-09-25 17:26:00,75.4,64.1,29.79,SSE,163,2.0,8.0,68,0.00,,---,0.01,VWS V14.01,2013-09-25 22:26:00,
2013-09-25 17:30:00,76.7,65.3,29.80,SSE,153,2.0,5.0,68,0.00,,---,0.01,VWS V14.01,2013-09-25 22:30:00,
2013-09-25 17:31:00,75.4,64.1,29.80,SE,143,3.0,3.0,68,0.00,,---,0.01,VWS V14.01,2013-09-25 22:31:00,
2013-09-25 17:36:00,75.3,64.0,29.80,SE,127,3.0,5.0,68,0.00,,---,0.01,VWS V14.01,2013-09-25 22:36:00,
2013-09-25 17:41:00,75.1,63.8,29.80,SSE,155,0.0,5.0,68,0.00,,---,0.01,VWS V14.01,2013-09-25 22:41:00,
2013-09-25 17:46:00,74.9,63.6,29.80,SSE,154,2.0,5.0,68,0.00,,---,0.01,VWS V14.01,2013-09-25 22:46:00,
2013-09-25 17:51:00,74.7,63.5,29.80,ENE,70,2.0,5.0,68,0.00,,---,0.01,VWS V14.01,2013-09-25 22:51:00,
2013-09-25 17:56:00,74.6,63.3,29.80,SE,144,3.0,5.0,68,0.00,,---,0.01,VWS V14.01,2013-09-25 22:56:00,
2013-09-25 18:00:00,76.1,64.8,29.79,SE,128,0.0,6.0,68,0.00,,---,0.01,VWS V14.01,2013-09-25 23:00:00,
2013-09-25 18:01:00,74.4,63.6,29.80,ESE,106,2.0,4.0,69,0.00,,---,0.01,VWS V14.01,2013-09-25 23:01:00,
2013-09-25 18:06:00,74.0,63.2,29.80,SE,142,2.0,4.0,69,0.00,,---,0.01,VWS V14.01,2013-09-25 23:06:00,
2013-09-25 18:11:00,73.9,63.1,29.80,SE,127,1.0,4.0,69,0.00,,---,0.01,VWS V14.01,2013-09-25 23:11:00,
2013-09-25 18:16:00,73.9,63.1,29.80,SE,130,2.0,4.0,69,0.00,,---,0.01,VWS V14.01,2013-09-25 23:16:00,
2013-09-25 18:21:00,73.7,62.9,29.80,SE,144,1.0,4.0,69,0.00,,---,0.01,VWS V14.01,2013-09-25 23:21:00,
2013-09-25 18:26:00,73.5,62.7,29.80,SE,144,1.0,4.0,69,0.00,,---,0.01,VWS V14.01,2013-09-25 23:26:00,
2013-09-25 18:30:00,75.4,64.1,29.80,SSE,150,1.0,8.0,68,0.00,,---,0.01,VWS V14.01,2013-09-25 23:30:00,
2013-09-25 18:31:00,73.3,62.9,29.80,SSE,151,0.0,2.0,70,0.00,,---,0.01,VWS V14.01,2013-09-25 23:31:00,
2013-09-25 18:36:00,73.2,62.8,29.80,SE,142,0.0,5.0,70,0.00,,---,0.01,VWS V14.01,2013-09-25 23:36:00,
2013-09-25 18:41:00,72.8,62.5,29.80,SSE,152,1.0,5.0,70,0.00,,---,0.01,VWS V14.01,2013-09-25 23:41:00,
2013-09-25 18:46:00,72.5,62.6,29.79,SSE,150,1.0,5.0,71,0.00,,---,0.01,VWS V14.01,2013-09-25 23:46:00,
2013-09-25 18:51:00,72.1,62.2,29.79,SE,136,0.0,5.0,71,0.00,,---,0.01,VWS V14.01,2013-09-25 23:51:00,
2013-09-25 18:56:00,71.8,61.9,29.79,SE,128,1.0,5.0,71,0.00,,---,0.01,VWS V14.01,2013-09-25 23:56:00,
2013-09-25 19:00:00,74.4,63.6,29.80,East,81,0.0,5.0,69,0.00,,---,0.01,VWS V14.01,2013-09-26 00:00:00,
2013-09-25 19:01:00,71.5,62.0,29.79,SSE,150,2.0,2.0,72,0.00,,---,0.01,VWS V14.01,2013-09-26 00:01:00,
2013-09-25 19:06:00,71.1,61.6,29.79,SSE,150,0.0,2.0,72,0.00,,---,0.01,VWS V14.01,2013-09-26 00:06:00,
2013-09-25 19:11:00,70.8,61.3,29.79,SSE,155,0.0,3.0,72,0.00,,---,0.01,VWS V14.01,2013-09-26 00:11:00,
2013-09-25 19:16:00,70.4,61.3,29.79,SSE,149,0.0,3.0,73,0.00,,---,0.01,VWS V14.01,2013-09-26 00:16:00,
2013-09-25 19:21:00,70.1,61.0,29.79,SE,126,0.0,4.0,73,0.00,,---,0.01,VWS V14.01,2013-09-26 00:21:00,
2013-09-25 19:26:00,69.9,60.9,29.79,SSE,163,2.0,4.0,73,0.00,,---,0.01,VWS V14.01,2013-09-26 00:26:00,
2013-09-25 19:30:00,73.3,62.9,29.80,SSE,148,1.0,4.0,70,0.00,,---,0.01,VWS V14.01,2013-09-26 00:30:00,
2013-09-25 19:31:00,69.6,61.0,29.79,South,175,0.0,0.0,74,0.00,,---,0.01,VWS V14.01,2013-09-26 00:31:00,
2013-09-25 19:36:00,69.4,60.8,29.79,South,175,1.0,1.0,74,0.00,,---,0.01,VWS V14.01,2013-09-26 00:36:00,
2013-09-25 19:41:00,69.1,60.8,29.79,SSE,153,0.0,2.0,75,0.00,,---,0.01,VWS V14.01,2013-09-26 00:41:00,
2013-09-25 19:46:00,68.9,60.7,29.79,SSE,153,0.0,2.0,75,0.00,,---,0.01,VWS V14.01,2013-09-26 00:46:00,
2013-09-25 19:51:00,68.8,60.6,29.79,SE,127,2.0,3.0,75,0.00,,---,0.01,VWS V14.01,2013-09-26 00:51:00,
2013-09-25 19:56:00,68.6,60.7,29.79,East,99,0.0,3.0,76,0.00,,---,0.01,VWS V14.01,2013-09-26 00:56:00,
2013-09-25 20:00:00,71.5,62.0,29.79,SE,128,1.0,5.0,72,0.00,,---,0.01,VWS V14.01,2013-09-26 01:00:00,
2013-09-25 20:01:00,68.4,60.5,29.79,SSE,167,1.0,1.0,76,0.00,,---,0.01,VWS V14.01,2013-09-26 01:01:00,
2013-09-25 20:06:00,68.3,60.8,29.79,SSE,163,0.0,3.0,77,0.00,,---,0.01,VWS V14.01,2013-09-26 01:06:00,
2013-09-25 20:11:00,68.1,60.6,29.79,SSE,157,0.0,3.0,77,0.00,,---,0.01,VWS V14.01,2013-09-26 01:11:00,
2013-09-25 20:16:00,67.9,60.4,29.79,SSE,147,1.0,3.0,77,0.00,,---,0.01,VWS V14.01,2013-09-26 01:16:00,
2013-09-25 20:21:00,67.6,60.1,29.79,SSE,148,2.0,3.0,77,0.00,,---,0.01,VWS V14.01,2013-09-26 01:21:00,
2013-09-25 20:26:00,67.4,60.3,29.79,SSE,147,0.0,3.0,78,0.00,,---,0.01,VWS V14.01,2013-09-26 01:26:00,
2013-09-25 20:30:00,69.6,61.0,29.79,South,175,0.0,4.0,74,0.00,,---,0.01,VWS V14.01,2013-09-26 01:30:00,
2013-09-25 20:31:00,67.3,60.2,29.80,SE,142,1.0,1.0,78,0.00,,---,0.01,VWS V14.01,2013-09-26 01:31:00,
2013-09-25 20:36:00,67.1,60.4,29.80,SE,142,0.0,2.0,79,0.00,,---,0.01,VWS V14.01,2013-09-26 01:36:00,
2013-09-25 20:41:00,66.9,60.2,29.80,SE,142,0.0,2.0,79,0.00,,---,0.01,VWS V14.01,2013-09-26 01:41:00,
2013-09-25 20:46:00,66.8,60.1,29.80,SE,142,1.0,2.0,79,0.00,,---,0.01,VWS V14.01,2013-09-26 01:46:00,
2013-09-25 20:51:00,66.6,60.2,29.80,SSE,155,0.0,2.0,80,0.00,,---,0.01,VWS V14.01,2013-09-26 01:51:00,
2013-09-25 20:56:00,66.4,60.0,29.80,SSE,161,1.0,2.0,80,0.00,,---,0.01,VWS V14.01,2013-09-26 01:56:00,
2013-09-25 21:00:00,68.4,60.5,29.79,SSE,167,1.0,4.0,76,0.00,,---,0.01,VWS V14.01,2013-09-26 02:00:00,
2013-09-25 21:01:00,66.3,60.0,29.80,SSE,163,0.0,0.0,80,0.00,,---,0.01,VWS V14.01,2013-09-26 02:01:00,
2013-09-25 21:06:00,66.1,59.8,29.80,SSE,163,0.0,2.0,80,0.00,,---,0.01,VWS V14.01,2013-09-26 02:06:00,
2013-09-25 21:11:00,66.0,60.0,29.80,SSE,163,1.0,3.0,81,0.00,,---,0.01,VWS V14.01,2013-09-26 02:11:00,
2013-09-25 21:16:00,65.8,59.8,29.80,SSE,155,2.0,3.0,81,0.00,,---,0.01,VWS V14.01,2013-09-26 02:16:00,
2013-09-25 21:21:00,65.6,59.6,29.80,SSE,153,1.0,3.0,81,0.00,,---,0.01,VWS V14.01,2013-09-26 02:21:00,
2013-09-25 21:26:00,65.5,59.9,29.80,SSE,154,0.0,3.0,82,0.00,,---,0.01,VWS V14.01,2013-09-26 02:26:00,
2013-09-25 21:30:00,67.3,60.2,29.80,SE,142,0.0,3.0,78,0.00,,---,0.01,VWS V14.01,2013-09-26 02:30:00,
2013-09-25 21:31:00,65.5,59.9,29.80,SSE,165,4.0,4.0,82,0.00,,---,0.01,VWS V14.01,2013-09-26 02:31:00,
2013-09-25 21:36:00,65.3,59.7,29.80,SSE,156,1.0,4.0,82,0.00,,---,0.01,VWS V14.01,2013-09-26 02:36:00,
2013-09-25 21:41:00,65.2,59.6,29.80,SSE,153,0.0,4.0,82,0.00,,---,0.01,VWS V14.01,2013-09-26 02:41:00,
2013-09-25 21:46:00,65.2,59.6,29.79,SE,146,0.0,4.0,82,0.00,,---,0.01,VWS V14.01,2013-09-26 02:46:00,
2013-09-25 21:51:00,65.0,59.7,29.79,SSE,148,0.0,4.0,83,0.00,,---,0.01,VWS V14.01,2013-09-26 02:51:00,
2013-09-25 21:56:00,64.8,59.5,29.79,SE,140,1.0,4.0,83,0.00,,---,0.01,VWS V14.01,2013-09-26 02:56:00,
2013-09-25 22:00:00,66.3,60.0,29.80,SSE,163,0.0,2.0,80,0.00,,---,0.01,VWS V14.01,2013-09-26 03:00:00,
2013-09-25 22:01:00,64.7,59.4,29.79,SSE,157,0.0,1.0,83,0.00,,---,0.01,VWS V14.01,2013-09-26 03:01:00,
2013-09-25 22:06:00,64.7,59.4,29.79,SSE,162,0.0,2.0,83,0.00,,---,0.01,VWS V14.01,2013-09-26 03:06:00,
2013-09-25 22:11:00,64.7,59.8,29.79,South,169,0.0,3.0,84,0.00,,---,0.01,VWS V14.01,2013-09-26 03:11:00,
2013-09-25 22:16:00,64.5,59.6,29.80,South,169,0.0,3.0,84,0.00,,---,0.01,VWS V14.01,2013-09-26 03:16:00,
2013-09-25 22:21:00,64.5,59.6,29.80,SSE,161,3.0,3.0,84,0.00,,---,0.01,VWS V14.01,2013-09-26 03:21:00,
2013-09-25 22:26:00,64.3,59.4,29.80,SE,140,0.0,3.0,84,0.00,,---,0.01,VWS V14.01,2013-09-26 03:26:00,
2013-09-25 22:30:00,65.5,59.9,29.80,SSE,159,1.0,3.0,82,0.00,,---,0.01,VWS V14.01,2013-09-26 03:30:00,
2013-09-25 22:31:00,64.3,59.4,29.80,SE,142,0.0,0.0,84,0.00,,---,0.01,VWS V14.01,2013-09-26 03:31:00,
2013-09-25 22:36:00,64.3,59.7,29.80,SE,140,0.0,2.0,85,0.00,,---,0.01,VWS V14.01,2013-09-26 03:36:00,
2013-09-25 22:41:00,64.3,59.7,29.80,SE,142,1.0,2.0,85,0.00,,---,0.01,VWS V14.01,2013-09-26 03:41:00,
2013-09-25 22:46:00,64.2,59.6,29.80,SSE,155,1.0,3.0,85,0.00,,---,0.01,VWS V14.01,2013-09-26 03:46:00,
2013-09-25 22:51:00,64.2,59.6,29.80,SSE,157,0.0,3.0,85,0.00,,---,0.01,VWS V14.01,2013-09-26 03:51:00,
2013-09-25 22:56:00,64.0,59.4,29.80,SSE,168,1.0,3.0,85,0.00,,---,0.01,VWS V14.01,2013-09-26 03:56:00,
2013-09-25 23:00:00,64.7,59.4,29.79,SSE,157,1.0,4.0,83,0.00,,---,0.01,VWS V14.01,2013-09-26 04:00:00,
2013-09-25 23:01:00,64.0,59.7,29.80,SSE,168,1.0,3.0,86,0.00,,---,0.01,VWS V14.01,2013-09-26 04:01:00,
2013-09-25 23:06:00,64.0,59.7,29.80,SSE,165,1.0,2.0,86,0.00,,---,0.01,VWS V14.01,2013-09-26 04:06:00,
2013-09-25 23:11:00,64.0,59.7,29.80,South,171,0.0,2.0,86,0.00,,---,0.01,VWS V14.01,2013-09-26 04:11:00,
2013-09-25 23:16:00,63.9,59.6,29.80,SSE,167,0.0,3.0,86,0.00,,---,0.01,VWS V14.01,2013-09-26 04:16:00,
2013-09-25 23:21:00,63.9,59.6,29.80,South,169,2.0,3.0,86,0.00,,---,0.01,VWS V14.01,2013-09-26 04:21:00,
2013-09-25 23:26:00,63.7,59.4,29.80,South,169,0.0,3.0,86,0.00,,---,0.01,VWS V14.01,2013-09-26 04:26:00,
2013-09-25 23:30:00,64.3,59.4,29.80,SE,143,0.0,3.0,84,0.00,,---,0.01,VWS V14.01,2013-09-26 04:30:00,
2013-09-25 23:31:00,63.4,59.2,29.81,South,169,0.0,0.0,86,0.00,,---,0.01,VWS V14.01,2013-09-26 04:31:00,
2013-09-25 23:36:00,63.2,59.3,29.81,SSE,165,2.0,2.0,87,0.00,,---,0.01,VWS V14.01,2013-09-26 04:36:00,
2013-09-25 23:41:00,63.2,59.3,29.81,SSE,165,0.0,2.0,87,0.00,,---,0.01,VWS V14.01,2013-09-26 04:41:00,
2013-09-25 23:46:00,63.4,59.5,29.80,SSE,160,0.0,2.0,87,0.00,,---,0.01,VWS V14.01,2013-09-26 04:46:00,
2013-09-25 23:51:00,63.4,59.5,29.80,SE,124,0.0,2.0,87,0.00,,---,0.01,VWS V14.01,2013-09-26 04:51:00,
2013-09-25 23:56:00,63.5,59.6,29.80,SSE,163,2.0,3.0,87,0.00,,---,0.01,VWS V14.01,2013-09-26 04:56:00,